首页
METAR-TAF:

METAR-TAF

机场 :

德拉姆堡, 紐約州, 美国

纬度: 44-03N, 经度: 075-44W, 海拔: 207米

当前天气观测

该预报发布于10分钟前的16:56 UTC
风速7节,风向西转西北
温度 2°C
湿度 75%
气压 1017 hPa
能見度: 16.1公里
阴天层高于1900英尺

METAR: KGTB 201656Z AUTO 29007KT 10SM OVC019 02/M02 A3003 RMK AO2 SLP177 T00181025

时间: 12:06 (17:06 UTC)

预报

该预报发布于8小时和6分钟前的09:00 UTC
预报有效从20日的 09点(UTC)到 21日的 15点(UTC)
风速6节,风向多变
能见度10公里或以上
多云层高于5000英尺
成为
从 20日的 23点(UTC)到 20日的 24点(UTC)
风速6节,风向西转西北
能见度10公里或以上
散云层高于1000英尺
成为
从 21日的 03点(UTC)到 21日的 04点(UTC)
风速6节,风向多变
能见度10公里或以上
多云层高于1000英尺

TAF: KGTB 200900Z 2009/2115 VRB06KT 9999 BKN050 620504 QNH2993INS BECMG 2023/2024 30006KT 9999 SCT010 QNH3010INS BECMG 2103/2104 VRB06KT 9999 BKN010 620102 QNH3015INS TX01/2018Z TNM02/2009Z

超过4000个机场的气象观测和天气预报(METAR&TAF报告)。

可查询的气象台以黄色和红色小点在地图上表示。

将鼠标移到小点上方,可查看气象台名称。

然后点击查看天气观测和预报。

如需切换地图:点击带黑十字的绿色按钮放大地图;点击带横线的绿色按钮缩小地图;或者点击绿色箭头查看邻近地区的地图。


METAR-TAF: